createdAt,value
2023-01-10T00:02:19.097Z,100469.47
2023-01-10T00:04:45.526Z,100474.22
2023-01-10T00:07:12.128Z,100489.22
2023-01-10T00:09:38.490Z,100481.50
2023-01-10T00:12:23.997Z,100495.38
2023-01-10T00:14:50.726Z,100496.34
2023-01-10T00:17:18.641Z,100496.75
2023-01-10T00:19:45.064Z,100514.41
2023-01-10T00:22:11.907Z,100509.94
2023-01-10T00:24:38.999Z,100513.69
2023-01-10T00:27:05.510Z,100513.56
2023-01-10T00:29:32.037Z,100519.03
2023-01-10T00:31:58.521Z,100517.06
2023-01-10T00:34:25.111Z,100528.81
2023-01-10T00:36:51.739Z,100522.97
2023-01-10T00:39:20.775Z,100531.34
2023-01-10T00:42:06.202Z,100528.28
2023-01-10T00:44:32.665Z,100532.59
2023-01-10T00:46:59.116Z,100530.63
2023-01-10T00:49:25.515Z,100544.91
2023-01-10T00:51:51.975Z,100535.81
2023-01-10T00:54:18.514Z,100544.78
2023-01-10T00:56:44.966Z,100560.31
2023-01-10T00:59:11.378Z,100560.00
2023-01-10T01:01:37.907Z,100565.34
2023-01-10T01:04:04.541Z,100575.97
2023-01-10T01:06:30.994Z,100578.06
2023-01-10T01:08:57.694Z,100582.81
2023-01-10T01:11:24.775Z,100580.31
2023-01-10T01:13:51.808Z,100595.69
2023-01-10T01:16:18.492Z,100599.00
2023-01-10T01:18:45.073Z,100607.38
2023-01-10T01:21:11.564Z,100620.44
2023-01-10T01:23:38.201Z,100621.00
2023-01-10T01:26:06.258Z,100619.25
2023-01-10T01:28:32.792Z,100633.63
2023-01-10T01:30:59.427Z,100645.50
2023-01-10T01:33:26.161Z,100651.47
2023-01-10T01:35:52.537Z,100651.47
2023-01-10T01:38:19.061Z,100655.81
2023-01-10T01:40:45.540Z,100660.53
2023-01-10T01:43:26.876Z,100665.22
2023-01-10T01:45:54.151Z,100684.53
2023-01-10T01:48:27.963Z,100679.94
2023-01-10T01:51:17.071Z,100684.97
2023-01-10T01:53:48.268Z,100687.50
2023-01-10T01:56:24.502Z,100690.16
2023-01-10T01:58:57.151Z,100698.25
2023-01-10T02:01:24.077Z,100704.28
2023-01-10T02:03:56.007Z,100701.50
2023-01-10T02:06:24.787Z,100705.13
2023-01-10T02:09:03.197Z,100715.38
2023-01-10T02:11:30.675Z,100712.97
2023-01-10T02:13:57.891Z,100723.34
2023-01-10T02:16:24.297Z,100721.78
2023-01-10T02:18:50.798Z,100726.97
2023-01-10T02:21:41.892Z,100723.22
2023-01-10T02:24:17.043Z,100733.72
2023-01-10T02:27:02.333Z,100739.75
2023-01-10T02:29:44.257Z,100746.91
2023-01-10T02:33:00.232Z,100754.88
2023-01-10T02:35:51.675Z,100751.50
2023-01-10T02:38:36.270Z,100753.19
2023-01-10T02:41:17.864Z,100759.47
2023-01-10T02:43:54.280Z,100757.78
2023-01-10T02:46:27.640Z,100763.94
2023-01-10T02:48:55.206Z,100765.88
2023-01-10T02:51:29.703Z,100768.41
2023-01-10T02:54:12.175Z,100776.25
2023-01-10T02:57:18.490Z,100765.28
2023-01-10T02:59:56.475Z,100772.41
2023-01-10T03:02:44.408Z,100780.38
2023-01-10T03:05:26.147Z,100787.63
2023-01-10T03:08:25.345Z,100785.94
2023-01-10T03:10:59.885Z,100790.56
2023-01-10T03:13:38.068Z,100787.75
2023-01-10T03:16:07.921Z,100798.56
2023-01-10T03:19:01.863Z,100795.72
2023-01-10T03:21:31.487Z,100797.56
2023-01-10T03:24:10.550Z,100799.25
2023-01-10T03:26:44.886Z,100793.47
2023-01-10T03:29:14.170Z,100800.72
2023-01-10T03:31:48.024Z,100799.94
2023-01-10T03:34:14.600Z,100801.75
2023-01-10T03:36:56.251Z,100803.81
2023-01-10T03:39:51.921Z,100813.81
2023-01-10T03:43:04.428Z,100833.19
2023-01-10T03:45:36.801Z,100828.59
2023-01-10T03:48:07.052Z,100826.56
2023-01-10T03:50:33.734Z,100848.25
2023-01-10T03:53:00.363Z,100855.50
2023-01-10T03:55:29.916Z,100870.25
2023-01-10T03:57:56.354Z,100861.19
2023-01-10T04:00:24.168Z,100872.91
2023-01-10T04:02:50.834Z,100878.47
2023-01-10T04:05:17.287Z,100888.56
2023-01-10T04:07:43.751Z,100891.69
2023-01-10T04:10:10.761Z,100903.16
2023-01-10T04:12:37.211Z,100897.50
2023-01-10T04:15:04.312Z,100902.91
2023-01-10T04:17:30.757Z,100904.00
2023-01-10T04:19:57.149Z,100908.56
2023-01-10T04:22:23.573Z,100913.88
2023-01-10T04:24:51.896Z,100919.28
2023-01-10T04:27:18.880Z,100920.25
2023-01-10T04:29:45.262Z,100927.25
2023-01-10T04:32:12.164Z,100922.19
2023-01-10T04:34:38.654Z,100934.50
2023-01-10T04:37:05.303Z,100940.63
2023-01-10T04:39:31.782Z,100938.97
2023-01-10T04:41:58.230Z,100947.63
2023-01-10T04:44:24.841Z,100944.88
2023-01-10T04:46:51.228Z,100949.94
2023-01-10T04:49:17.893Z,100953.22
2023-01-10T04:51:44.287Z,100963.34
2023-01-10T04:54:10.699Z,100964.81
2023-01-10T04:56:37.135Z,100959.50
2023-01-10T04:59:06.432Z,100973.91
2023-01-10T05:01:33.911Z,100964.84
2023-01-10T05:04:00.348Z,100984.75
2023-01-10T05:06:26.737Z,100977.03
2023-01-10T05:08:53.159Z,100983.56
2023-01-10T05:11:19.600Z,100990.59
2023-01-10T05:13:47.908Z,101000.13
2023-01-10T05:16:14.941Z,101000.63
2023-01-10T05:18:41.710Z,100998.56
2023-01-10T05:21:13.442Z,100999.19
2023-01-10T05:23:39.961Z,101015.13
2023-01-10T05:26:11.873Z,101014.38
2023-01-10T05:28:39.547Z,101024.88
2023-01-10T05:31:07.511Z,101028.38
2023-01-10T05:33:34.023Z,101039.53
2023-01-10T05:36:05.123Z,101038.56
2023-01-10T05:38:32.798Z,101045.69
2023-01-10T05:40:59.826Z,101049.91
2023-01-10T05:43:26.695Z,101051.72
2023-01-10T05:45:53.423Z,101063.19
2023-01-10T05:48:22.860Z,101065.22
2023-01-10T05:50:50.873Z,101067.38
2023-01-10T05:53:18.246Z,101061.94
2023-01-10T05:55:51.998Z,101071.84
2023-01-10T05:58:18.453Z,101076.88
2023-01-10T06:00:44.829Z,101081.91
2023-01-10T06:03:11.226Z,101080.44
2023-01-10T06:05:40.746Z,101094.78
2023-01-10T06:08:07.307Z,101090.91
2023-01-10T06:10:33.715Z,101087.84
2023-01-10T06:13:00.171Z,101100.41
2023-01-10T06:15:26.692Z,101087.06
2023-01-10T06:17:53.095Z,101106.38
2023-01-10T06:20:19.576Z,101113.84
2023-01-10T06:22:46.131Z,101121.31
2023-01-10T06:25:13.840Z,101126.94
2023-01-10T06:27:41.629Z,101133.31
2023-01-10T06:30:09.582Z,101133.53
2023-01-10T06:32:36.364Z,101143.19
2023-01-10T06:35:03.022Z,101144.03
2023-01-10T06:37:29.448Z,101144.03
2023-01-10T06:39:55.998Z,101145.72
2023-01-10T06:42:22.395Z,101152.81
2023-01-10T06:44:48.822Z,101153.78
2023-01-10T06:47:15.336Z,101153.91
2023-01-10T06:49:41.761Z,101155.94
2023-01-10T06:52:08.174Z,101162.19
2023-01-10T06:54:34.552Z,101169.41
2023-01-10T06:57:00.985Z,101157.53
2023-01-10T06:59:27.587Z,101165.59
2023-01-10T07:01:54.080Z,101176.00
2023-01-10T07:04:20.908Z,101178.00
2023-01-10T07:06:47.331Z,101185.00
2023-01-10T07:09:13.812Z,101184.91
2023-01-10T07:11:40.207Z,101182.03
2023-01-10T07:14:06.991Z,101184.69
2023-01-10T07:16:33.395Z,101178.34
2023-01-10T07:18:59.843Z,101188.72
2023-01-10T07:21:26.475Z,101175.69
2023-01-10T07:23:52.899Z,101188.38
2023-01-10T07:26:19.552Z,101193.25
2023-01-10T07:28:50.955Z,101194.00
2023-01-10T07:31:19.311Z,101191.34
2023-01-10T07:33:45.831Z,101190.59
2023-01-10T07:36:12.663Z,101192.19
2023-01-10T07:38:39.271Z,101210.97
2023-01-10T07:41:06.298Z,101206.63
2023-01-10T07:43:33.876Z,101208.44
2023-01-10T07:46:02.167Z,101201.44
2023-01-10T07:48:28.855Z,101211.09
2023-01-10T07:50:57.414Z,101213.63
2023-01-10T07:53:24.483Z,101215.97
2023-01-10T07:55:50.927Z,101203.19
2023-01-10T07:58:17.333Z,101217.00
2023-01-10T08:00:43.993Z,101219.34
2023-01-10T08:03:11.100Z,101210.16
2023-01-10T08:05:37.604Z,101214.81
2023-01-10T08:08:06.114Z,101219.66
2023-01-10T08:10:34.616Z,101214.34
2023-01-10T08:13:13.129Z,101225.06
2023-01-10T08:15:45.445Z,101228.22
2023-01-10T08:18:11.878Z,101235.84
2023-01-10T08:20:38.713Z,101240.94
2023-01-10T08:23:05.404Z,101245.31
2023-01-10T08:25:31.860Z,101261.19
2023-01-10T08:27:58.279Z,101261.91
2023-01-10T08:30:24.826Z,101254.91
2023-01-10T08:32:52.301Z,101246.31
2023-01-10T08:35:18.777Z,101249.00
2023-01-10T08:37:45.188Z,101245.28
2023-01-10T08:40:12.055Z,101256.88
2023-01-10T08:42:38.441Z,101250.25
2023-01-10T08:45:05.791Z,101278.44
2023-01-10T08:47:32.336Z,101280.84
2023-01-10T08:49:58.834Z,101285.91
2023-01-10T08:52:25.243Z,101289.44
2023-01-10T08:54:54.655Z,101291.75
2023-01-10T08:57:21.205Z,101284.28
2023-01-10T08:59:47.605Z,101259.41
2023-01-10T09:02:14.320Z,101273.81
2023-01-10T09:04:40.814Z,101263.91
2023-01-10T09:07:07.317Z,101246.78
2023-01-10T09:09:33.690Z,101249.22
2023-01-10T09:12:00.206Z,101250.28
2023-01-10T09:14:26.617Z,101247.63
2023-01-10T09:16:53.026Z,101256.69
2023-01-10T09:19:37.810Z,101236.88
2023-01-10T09:22:04.318Z,101254.53
2023-01-10T09:24:31.051Z,101263.56
2023-01-10T09:26:57.459Z,101257.78
2023-01-10T09:29:23.971Z,101260.19
2023-01-10T09:31:50.354Z,101275.22
2023-01-10T09:34:16.972Z,101291.56
2023-01-10T09:36:43.359Z,101285.16
2023-01-10T09:39:09.740Z,101306.72
2023-01-10T09:42:09.950Z,101320.38
2023-01-10T09:45:16.806Z,101329.72
2023-01-10T09:47:55.814Z,101326.44
2023-01-10T09:50:27.835Z,101330.31
2023-01-10T09:53:01.627Z,101338.66
2023-01-10T09:55:37.014Z,101332.03
2023-01-10T09:58:13.040Z,101335.22
2023-01-10T10:01:10.942Z,101334.13
2023-01-10T10:03:47.532Z,101348.03
2023-01-10T10:06:14.546Z,101342.59
2023-01-10T10:08:46.577Z,101352.03
2023-01-10T10:11:25.238Z,101353.00
2023-01-10T10:13:59.912Z,101354.19
2023-01-10T10:16:54.768Z,101360.38
2023-01-10T10:19:46.316Z,101364.72
2023-01-10T10:23:01.098Z,101355.66
2023-01-10T10:26:06.713Z,101352.16
2023-01-10T10:28:57.666Z,101341.97
2023-01-10T10:31:45.928Z,101340.41
2023-01-10T10:34:38.990Z,101343.19
2023-01-10T10:37:26.814Z,101337.75
2023-01-10T10:40:05.049Z,101346.69
2023-01-10T10:42:39.342Z,101357.47
2023-01-10T10:45:10.576Z,101354.28
2023-01-10T10:47:42.724Z,101359.16
2023-01-10T10:50:27.387Z,101355.53
2023-01-10T10:52:53.854Z,101348.28
2023-01-10T10:55:29.755Z,101343.31
2023-01-10T10:58:00.502Z,101361.22
2023-01-10T11:00:29.461Z,101366.69
2023-01-10T11:03:13.434Z,101361.94
2023-01-10T11:05:41.844Z,101359.91
2023-01-10T11:08:15.854Z,101354.59
2023-01-10T11:10:52.469Z,101359.56
2023-01-10T11:13:34.048Z,101374.56
2023-01-10T11:16:05.822Z,101373.00
2023-01-10T11:18:33.685Z,101353.75
2023-01-10T11:21:11.588Z,101371.41
2023-01-10T11:23:41.941Z,101374.34
2023-01-10T11:26:34.386Z,101373.38
2023-01-10T11:29:14.483Z,101369.47
2023-01-10T11:31:41.915Z,101360.53
2023-01-10T11:34:33.131Z,101375.06
2023-01-10T11:37:03.340Z,101375.91
2023-01-10T11:39:30.668Z,101367.06
2023-01-10T11:41:59.352Z,101366.97
2023-01-10T11:44:28.835Z,101369.50
2023-01-10T11:47:01.799Z,101372.75
2023-01-10T11:49:38.874Z,101377.34
2023-01-10T11:52:26.360Z,101375.41
2023-01-10T11:55:00.432Z,101369.25
2023-01-10T11:57:30.683Z,101370.59
2023-01-10T12:00:09.941Z,101373.63
2023-01-10T12:02:44.823Z,101370.72
2023-01-10T12:05:19.738Z,101370.72
2023-01-10T12:07:56.403Z,101363.31
2023-01-10T12:10:25.244Z,101363.44
2023-01-10T12:12:58.143Z,101364.19
2023-01-10T12:15:26.212Z,101363.81
2023-01-10T12:17:53.583Z,101363.66
2023-01-10T12:20:20.075Z,101373.13
2023-01-10T12:22:49.963Z,101364.16
2023-01-10T12:25:20.877Z,101371.31
2023-01-10T12:27:50.455Z,101371.56
2023-01-10T12:30:23.921Z,101360.06
2023-01-10T12:32:53.439Z,101360.63
2023-01-10T12:35:34.372Z,101362.72
2023-01-10T12:38:44.279Z,101358.34
2023-01-10T12:41:35.810Z,101352.03
2023-01-10T12:44:12.062Z,101355.88
2023-01-10T12:47:09.217Z,101349.34
2023-01-10T12:49:46.300Z,101352.25
2023-01-10T12:52:23.106Z,101349.59
2023-01-10T12:54:49.707Z,101344.25
2023-01-10T12:57:35.928Z,101351.13
2023-01-10T13:00:06.812Z,101353.06
2023-01-10T13:02:43.770Z,101356.22
2023-01-10T13:05:30.032Z,101354.97
2023-01-10T13:08:03.357Z,101360.16
2023-01-10T13:10:31.253Z,101356.06
2023-01-10T13:13:20.781Z,101353.63
2023-01-10T13:16:02.977Z,101359.81
2023-01-10T13:18:31.540Z,101358.22
2023-01-10T13:21:18.568Z,101359.31
2023-01-10T13:24:00.034Z,101330.38
2023-01-10T13:26:26.971Z,101343.59
2023-01-10T13:28:59.193Z,101346.69
2023-01-10T13:31:31.705Z,101354.81
2023-01-10T13:34:02.922Z,101348.53
2023-01-10T13:36:37.723Z,101356.41
2023-01-10T13:39:08.965Z,101347.53
2023-01-10T13:42:16.149Z,101350.56
2023-01-10T13:45:00.635Z,101348.28
2023-01-10T13:47:39.319Z,101361.84
2023-01-10T13:50:42.293Z,101365.66
2023-01-10T13:53:12.709Z,101362.59
2023-01-10T13:55:39.096Z,101362.00
2023-01-10T13:58:14.345Z,101369.38
2023-01-10T14:01:01.886Z,101372.06
2023-01-10T14:03:51.794Z,101364.56
2023-01-10T14:06:20.920Z,101368.94
2023-01-10T14:08:57.745Z,101371.97
2023-01-10T14:11:27.177Z,101373.06
2023-01-10T14:13:57.589Z,101367.00
2023-01-10T14:16:35.533Z,101365.47
2023-01-10T14:19:05.022Z,101364.00
2023-01-10T14:21:38.105Z,101353.72
2023-01-10T14:24:04.838Z,101364.16
2023-01-10T14:26:36.851Z,101361.84
2023-01-10T14:29:15.904Z,101363.19
2023-01-10T14:31:47.630Z,101354.72
2023-01-10T14:34:26.710Z,101354.09
2023-01-10T14:37:01.539Z,101339.44
2023-01-10T14:39:29.396Z,101351.09
2023-01-10T14:42:02.651Z,101335.72
2023-01-10T14:44:34.979Z,101331.00
2023-01-10T14:47:04.704Z,101333.53
2023-01-10T14:49:36.152Z,101332.06
2023-01-10T14:52:24.152Z,101323.22
2023-01-10T14:55:22.556Z,101324.56
2023-01-10T14:58:01.244Z,101330.88
2023-01-10T15:00:33.787Z,101333.88
2023-01-10T15:03:03.827Z,101332.31
2023-01-10T15:05:35.114Z,101334.00
2023-01-10T15:08:16.935Z,101329.53
2023-01-10T15:10:47.173Z,101319.13
2023-01-10T15:13:18.723Z,101320.09
2023-01-10T15:15:47.748Z,101318.25
2023-01-10T15:18:26.265Z,101321.31
2023-01-10T15:20:53.630Z,101321.44
2023-01-10T15:23:20.861Z,101325.44
2023-01-10T15:25:57.267Z,101319.88
2023-01-10T15:28:23.764Z,101308.13
2023-01-10T15:30:50.811Z,101310.41
2023-01-10T15:33:22.772Z,101306.91
2023-01-10T15:35:49.330Z,101311.78
2023-01-10T15:38:27.247Z,101301.69
2023-01-10T15:41:02.443Z,101311.03
2023-01-10T15:43:34.255Z,101298.19
2023-01-10T15:46:03.236Z,101312.25
2023-01-10T15:48:43.691Z,101306.31
2023-01-10T15:51:26.030Z,101298.44
2023-01-10T15:54:04.682Z,101300.72
2023-01-10T15:56:33.246Z,101298.34
2023-01-10T15:59:01.134Z,101294.44
2023-01-10T16:01:29.131Z,101295.53
2023-01-10T16:04:02.057Z,101291.91
2023-01-10T16:06:36.897Z,101291.06
2023-01-10T16:09:17.529Z,101295.28
2023-01-10T16:12:10.828Z,101298.69
2023-01-10T16:14:37.899Z,101292.00
2023-01-10T16:17:05.926Z,101292.97
2023-01-10T16:19:32.349Z,101280.91
2023-01-10T16:22:00.082Z,101285.97
2023-01-10T16:24:35.933Z,101282.22
2023-01-10T16:27:05.931Z,101267.44
2023-01-10T16:29:33.560Z,101266.88
2023-01-10T16:32:00.172Z,101277.97
2023-01-10T16:34:26.574Z,101267.22
2023-01-10T16:36:53.299Z,101265.16
2023-01-10T16:39:22.105Z,101271.34
2023-01-10T16:42:07.747Z,101244.84
2023-01-10T16:44:35.023Z,101256.81
2023-01-10T16:47:04.343Z,101246.03
2023-01-10T16:49:32.406Z,101252.22
2023-01-10T16:51:59.508Z,101233.25
2023-01-10T16:54:25.947Z,101231.41
2023-01-10T16:56:52.386Z,101241.34
2023-01-10T16:59:20.482Z,101242.88
2023-01-10T17:01:52.055Z,101248.34
2023-01-10T17:04:23.909Z,101242.31
2023-01-10T17:06:50.828Z,101229.97
2023-01-10T17:09:27.508Z,101212.66
2023-01-10T17:12:01.667Z,101220.19
2023-01-10T17:14:30.140Z,101213.88
2023-01-10T17:16:56.599Z,101213.16
2023-01-10T17:19:23.043Z,101206.13
2023-01-10T17:21:50.890Z,101193.69
2023-01-10T17:24:17.507Z,101194.66
2023-01-10T17:26:44.042Z,101191.16
2023-01-10T17:29:10.506Z,101180.75
2023-01-10T17:31:37.143Z,101175.91
2023-01-10T17:34:03.746Z,101172.88
2023-01-10T17:36:32.443Z,101164.28
2023-01-10T17:38:59.649Z,101162.22
2023-01-10T17:41:26.062Z,101157.53
2023-01-10T17:43:52.480Z,101152.09
2023-01-10T17:46:18.936Z,101155.09
2023-01-10T17:48:45.352Z,101153.16
2023-01-10T17:51:13.178Z,101147.50
2023-01-10T17:53:40.594Z,101118.72
2023-01-10T17:56:07.898Z,101128.84
2023-01-10T17:58:34.810Z,101131.66
2023-01-10T18:01:01.334Z,101127.78
2023-01-10T18:03:27.964Z,101117.50
2023-01-10T18:05:56.395Z,101106.97
2023-01-10T18:08:23.357Z,101118.00
2023-01-10T18:10:50.498Z,101107.94
2023-01-10T18:13:20.004Z,101103.13
2023-01-10T18:15:49.863Z,101103.56
2023-01-10T18:18:16.885Z,101098.53
2023-01-10T18:20:44.785Z,101097.69
2023-01-10T18:23:24.846Z,101102.59
2023-01-10T18:25:53.281Z,101094.50
2023-01-10T18:28:23.520Z,101089.19
2023-01-10T18:30:56.058Z,101086.03
2023-01-10T18:33:25.620Z,101088.34
2023-01-10T18:35:52.199Z,101084.22
2023-01-10T18:38:19.139Z,101092.44
2023-01-10T18:40:47.208Z,101084.09
2023-01-10T18:43:16.542Z,101087.00
2023-01-10T18:45:44.878Z,101086.03
2023-01-10T18:48:12.235Z,101078.66
2023-01-10T18:50:38.721Z,101074.19
2023-01-10T18:53:05.445Z,101066.06
2023-01-10T18:55:32.194Z,101059.31
2023-01-10T18:57:58.991Z,101042.75
2023-01-10T19:00:25.608Z,101054.72
2023-01-10T19:02:54.158Z,101045.75
2023-01-10T19:05:21.346Z,101037.78
2023-01-10T19:07:47.861Z,101053.75
2023-01-10T19:10:14.325Z,101044.63
2023-01-10T19:12:42.277Z,101031.72
2023-01-10T19:15:09.730Z,101030.59
2023-01-10T19:17:36.128Z,101035.13
2023-01-10T19:20:03.124Z,101029.63
2023-01-10T19:22:29.532Z,101037.50
2023-01-10T19:24:56.084Z,101028.31
2023-01-10T19:27:22.466Z,101015.13
2023-01-10T19:29:49.838Z,101019.59
2023-01-10T19:32:16.514Z,101011.13
2023-01-10T19:34:45.461Z,101015.72
2023-01-10T19:37:12.706Z,101006.41
2023-01-10T19:39:39.138Z,101018.13
2023-01-10T19:42:05.866Z,101009.91
2023-01-10T19:44:32.324Z,101022.72
2023-01-10T19:46:59.132Z,101008.06
2023-01-10T19:49:25.625Z,101014.09
2023-01-10T19:51:53.646Z,101026.31
2023-01-10T19:54:20.268Z,101010.59
2023-01-10T19:56:46.710Z,101016.88
2023-01-10T19:59:17.621Z,100996.38
2023-01-10T20:01:44.299Z,101011.63
2023-01-10T20:04:10.838Z,101011.84
2023-01-10T20:06:39.197Z,100991.84
2023-01-10T20:09:07.219Z,100980.63
2023-01-10T20:11:37.876Z,100978.63
2023-01-10T20:14:11.903Z,100979.47
2023-01-10T20:16:38.453Z,100976.84
2023-01-10T20:19:08.896Z,100961.38
2023-01-10T20:21:37.035Z,100964.47
2023-01-10T20:24:07.987Z,100947.72
2023-01-10T20:26:34.862Z,100939.84
2023-01-10T20:29:02.747Z,100920.44
2023-01-10T20:31:29.689Z,100924.53
2023-01-10T20:33:56.138Z,100916.97
2023-01-10T20:36:24.255Z,100914.66
2023-01-10T20:38:51.048Z,100908.50
2023-01-10T20:41:22.835Z,100906.94
2023-01-10T20:43:49.861Z,100902.34
2023-01-10T20:46:20.214Z,100899.69
2023-01-10T20:48:48.046Z,100884.84
2023-01-10T20:51:23.585Z,100867.22
2023-01-10T20:53:51.048Z,100848.78
2023-01-10T20:56:26.026Z,100845.75
2023-01-10T20:58:53.480Z,100833.56
2023-01-10T21:01:33.059Z,100811.72
2023-01-10T21:04:00.816Z,100799.28
2023-01-10T21:06:27.420Z,100794.81
2023-01-10T21:08:53.940Z,100793.03
2023-01-10T21:11:20.879Z,100801.44
2023-01-10T21:13:47.454Z,100783.94
2023-01-10T21:16:16.149Z,100782.88
2023-01-10T21:18:44.363Z,100777.22
2023-01-10T21:21:13.501Z,100774.19
2023-01-10T21:23:40.682Z,100768.88
2023-01-10T21:26:10.781Z,100740.78
2023-01-10T21:28:42.226Z,100747.16
2023-01-10T21:31:10.299Z,100756.56
2023-01-10T21:33:37.253Z,100753.09
2023-01-10T21:36:04.397Z,100737.16
2023-01-10T21:38:32.316Z,100738.97
2023-01-10T21:41:07.823Z,100731.84
2023-01-10T21:43:34.297Z,100727.63
2023-01-10T21:46:01.511Z,100716.03
2023-01-10T21:48:28.884Z,100716.72
2023-01-10T21:50:55.664Z,100725.81
2023-01-10T21:53:22.778Z,100716.75
2023-01-10T21:55:49.317Z,100733.41
2023-01-10T21:58:15.788Z,100735.31
2023-01-10T22:00:42.248Z,100719.53
2023-01-10T22:03:08.875Z,100724.69
2023-01-10T22:05:35.242Z,100715.19
2023-01-10T22:08:01.673Z,100722.75
2023-01-10T22:10:28.101Z,100702.63
2023-01-10T22:12:54.518Z,100685.16
2023-01-10T22:15:20.999Z,100690.19
2023-01-10T22:17:48.234Z,100680.75
2023-01-10T22:20:16.670Z,100676.41
2023-01-10T22:22:43.073Z,100671.81
2023-01-10T22:25:09.999Z,100672.78
2023-01-10T22:27:36.408Z,100660.59
2023-01-10T22:30:02.999Z,100661.31
2023-01-10T22:32:29.384Z,100643.72
2023-01-10T22:34:55.807Z,100653.34
2023-01-10T22:37:22.211Z,100639.38
2023-01-10T22:39:48.811Z,100630.91
2023-01-10T22:42:15.294Z,100626.09
2023-01-10T22:44:41.767Z,100627.53
2023-01-10T22:47:09.976Z,100608.47
2023-01-10T22:49:36.453Z,100607.88
2023-01-10T22:52:02.949Z,100637.06
2023-01-10T22:54:29.351Z,100603.03
2023-01-10T22:56:55.782Z,100636.97
2023-01-10T22:59:22.200Z,100620.84
2023-01-10T23:01:48.643Z,100622.72
2023-01-10T23:04:16.753Z,100614.50
2023-01-10T23:06:43.280Z,100596.88
2023-01-10T23:09:09.789Z,100598.44
2023-01-10T23:11:36.210Z,100598.31
2023-01-10T23:14:02.704Z,100585.16
2023-01-10T23:16:32.634Z,100589.97
2023-01-10T23:19:00.425Z,100599.47
2023-01-10T23:21:29.206Z,100564.13
2023-01-10T23:23:56.163Z,100563.94
2023-01-10T23:26:22.840Z,100586.34
2023-01-10T23:28:50.930Z,100572.25
2023-01-10T23:31:23.182Z,100558.38
2023-01-10T23:33:51.748Z,100559.81
2023-01-10T23:36:18.914Z,100573.06
2023-01-10T23:38:45.711Z,100572.41
2023-01-10T23:41:12.626Z,100567.69
2023-01-10T23:43:39.148Z,100557.44
2023-01-10T23:46:06.891Z,100558.88
2023-01-10T23:48:33.763Z,100572.16
2023-01-10T23:51:00.315Z,100551.22
2023-01-10T23:53:26.780Z,100547.41
2023-01-10T23:55:53.313Z,100533.22
2023-01-10T23:58:20.027Z,100523.13
